Tridens — PBVO — position and weather

sailwx.info

Track history (hours):
 
Tides and Currents Weather Stations Pressure Air Temp Water Temp Dewpoint Dewpoint Depression Visibility Wind Speed Wind Dir Waves Ship Positions

Oceanographic research ship Tridens (Netherlands)

Detailed information on ship capabilities available from University of Delaware's Ocean Information Center.

Last reported at 2014-Jul-19 20:17 UTC. Time now 2014-Jul-24 19:20 UTC.
Position N 52°06' E 004°16'.

Length 74 m; beam 14 m.

Type: Ship. MMSI: 244033000.

Date/timePositionNaut miles runAvg speedWind from/ knotsBaromVisibWave heightAir tempDewpointWater temp
2014-Jul-19 20:17N 52°06' E 004°16'0 0.0
2014-Jul-18 12:28N 52°06' E 004°16'0 0.0
2014-Jul-18 08:22N 52°06' E 004°16'0 0.0
2014-Jul-18 07:19N 52°06' E 004°16'0 0.0
2014-Jul-18 06:31N 52°06' E 004°16'0 0.0
2014-Jul-18 03:25N 52°06' E 004°16'0 0.0
2014-Jul-18 02:25N 52°06' E 004°16'0 0.0
2014-Jul-18 01:33N 52°06' E 004°16'0 0.0
2014-Jul-17 21:15N 52°06' E 004°16'0 0.0
2014-Jul-17 20:27N 52°06' E 004°16'0 0.0
2014-Jul-17 19:21N 52°06' E 004°16'1 1.2
2014-Jul-17 18:33N 52°07' E 004°15'1312.7
2014-Jul-17 17:33N 52°17' E 004°03'1313.0
2014-Jul-17 16:33N 52°27' E 003°50'1313.5
2014-Jul-17 15:33N 52°38' E 003°36'1413.6
2014-Jul-17 14:33N 52°49' E 003°22'1413.7
2014-Jul-17 13:32N 52°60' E 003°08'1414.6
2014-Jul-17 12:33N 53°12' E 002°55'84 9.3
2014-Jul-17 03:32N 54°19' E 001°30'49 4.5
2014-Jul-16 16:33N 54°17' E 000°06'10 9.7
2014-Jul-16 15:33N 54°22' W 000°08'1010.2
2014-Jul-16 14:33N 54°29' W 000°20'1010.2
2014-Jul-16 13:33N 54°37' W 000°33'9 8.9
2014-Jul-16 12:33N 54°43' W 000°43'4 4.4
2014-Jul-16 11:33N 54°47' W 000°47'1110.6
2014-Jul-16 10:30N 54°47' W 000°28'8 7.9
2014-Jul-16 09:32N 54°49' W 000°14'5 3.3
2014-Jul-16 08:06N 54°45' W 000°12'1 1.7
2014-Jul-16 07:33N 54°45' W 000°11'2 2.1
2014-Jul-16 06:32N 54°47' W 000°14'1010.0
2014-Jul-16 05:33N 54°47' E 000°03'10 9.6
2014-Jul-16 04:33N 54°47' E 000°20'8 8.4
2014-Jul-16 03:33N 54°47' E 000°35'6 6.3
2014-Jul-16 02:33N 54°48' E 000°45'1 0.7
2014-Jul-16 01:31N 54°49' E 000°45'1 0.8
2014-Jul-16 00:33N 54°50' E 000°45'1 1.2
2014-Jul-15 23:33N 54°49' E 000°45'1 0.8
2014-Jul-15 22:33N 54°48' E 000°46'1 0.5
2014-Jul-15 21:33N 54°47' E 000°45'  
2014-Jul-12 15:14N 54°60' W 001°27'5 7.5
2014-Jul-12 14:32N 55°02' W 001°19'5 5.2
2014-Jul-12 13:33N 55°07' W 001°22'9 9.0
2014-Jul-12 12:33N 55°16' W 001°26'9 8.9
2014-Jul-12 11:33N 55°25' W 001°28'1010.3
2014-Jul-12 10:33N 55°35' W 001°31'1111.0
2014-Jul-12 09:33N 55°45' W 001°38'5 5.3
2014-Jul-12 08:33N 55°47' W 001°29'1111.3
2014-Jul-12 07:33N 55°47' W 001°09'1511.1
2014-Jul-12 06:13N 55°47' W 000°43'710.4
2014-Jul-12 05:33N 55°47' W 000°31'34 5.2
2014-Jul-11 23:03N 55°47' E 000°29'  
Track history (hours):
 
Tides and Currents Weather Stations Pressure Air Temp Water Temp Dewpoint Dewpoint Depression Visibility Wind Speed Wind Dir Waves Ship Positions

Oceanographic research ship Tridens (Netherlands)

Detailed information on ship capabilities available from University of Delaware's Ocean Information Center.

Last reported at 2014-Jul-19 20:17 UTC. Time now 2014-Jul-24 19:20 UTC.
Position N 52°06' E 004°16'.

Length 74 m; beam 14 m.

Type: Ship. MMSI: 244033000.

Date/timePositionNaut miles runAvg speedWind from/ knotsBaromVisibWave heightAir tempDewpointWater temp
2014-Jul-19 20:17N 52°06' E 004°16'0 0.0
2014-Jul-18 12:28N 52°06' E 004°16'0 0.0
2014-Jul-18 08:22N 52°06' E 004°16'0 0.0
2014-Jul-18 07:19N 52°06' E 004°16'0 0.0
2014-Jul-18 06:31N 52°06' E 004°16'0 0.0
2014-Jul-18 03:25N 52°06' E 004°16'0 0.0
2014-Jul-18 02:25N 52°06' E 004°16'0 0.0
2014-Jul-18 01:33N 52°06' E 004°16'0 0.0
2014-Jul-17 21:15N 52°06' E 004°16'0 0.0
2014-Jul-17 20:27N 52°06' E 004°16'0 0.0
2014-Jul-17 19:21N 52°06' E 004°16'1 1.2
2014-Jul-17 18:33N 52°07' E 004°15'1312.7
2014-Jul-17 17:33N 52°17' E 004°03'1313.0
2014-Jul-17 16:33N 52°27' E 003°50'1313.5
2014-Jul-17 15:33N 52°38' E 003°36'1413.6
2014-Jul-17 14:33N 52°49' E 003°22'1413.7
2014-Jul-17 13:32N 52°60' E 003°08'1414.6
2014-Jul-17 12:33N 53°12' E 002°55'84 9.3
2014-Jul-17 03:32N 54°19' E 001°30'49 4.5
2014-Jul-16 16:33N 54°17' E 000°06'10 9.7
2014-Jul-16 15:33N 54°22' W 000°08'1010.2
2014-Jul-16 14:33N 54°29' W 000°20'1010.2
2014-Jul-16 13:33N 54°37' W 000°33'9 8.9
2014-Jul-16 12:33N 54°43' W 000°43'4 4.4
2014-Jul-16 11:33N 54°47' W 000°47'1110.6
2014-Jul-16 10:30N 54°47' W 000°28'8 7.9
2014-Jul-16 09:32N 54°49' W 000°14'5 3.3
2014-Jul-16 08:06N 54°45' W 000°12'1 1.7
2014-Jul-16 07:33N 54°45' W 000°11'2 2.1
2014-Jul-16 06:32N 54°47' W 000°14'1010.0
2014-Jul-16 05:33N 54°47' E 000°03'10 9.6
2014-Jul-16 04:33N 54°47' E 000°20'8 8.4
2014-Jul-16 03:33N 54°47' E 000°35'6 6.3
2014-Jul-16 02:33N 54°48' E 000°45'1 0.7
2014-Jul-16 01:31N 54°49' E 000°45'1 0.8
2014-Jul-16 00:33N 54°50' E 000°45'1 1.2
2014-Jul-15 23:33N 54°49' E 000°45'1 0.8
2014-Jul-15 22:33N 54°48' E 000°46'1 0.5
2014-Jul-15 21:33N 54°47' E 000°45'  
2014-Jul-12 15:14N 54°60' W 001°27'5 7.5
2014-Jul-12 14:32N 55°02' W 001°19'5 5.2
2014-Jul-12 13:33N 55°07' W 001°22'9 9.0
2014-Jul-12 12:33N 55°16' W 001°26'9 8.9
2014-Jul-12 11:33N 55°25' W 001°28'1010.3
2014-Jul-12 10:33N 55°35' W 001°31'1111.0
2014-Jul-12 09:33N 55°45' W 001°38'5 5.3
2014-Jul-12 08:33N 55°47' W 001°29'1111.3
2014-Jul-12 07:33N 55°47' W 001°09'1511.1
2014-Jul-12 06:13N 55°47' W 000°43'710.4
2014-Jul-12 05:33N 55°47' W 000°31'34 5.2
2014-Jul-11 23:03N 55°47' E 000°29'  

Dump ship's entire track history